Flight Track Log - Related Links

Times and Time Zones

All times are in EST time to prevent confusion due to time zone crossing. See the SWA1834 flight status page for this flight to view local times or setup timezone preferences in your user account.

Time Position Orientation Groundspeed Altitude Reporting Facility
EST Latitude Longitude Course Direction KTS MPH feet Rate Location/Type
Sat 06:50:19 PM 29.6356 -95.2675 27° Northeast 151 174 1,000  Level Houston Center
Sat 06:51:33 PM 29.6872 -95.2372 27° Northeast 272 313 4,400 2,713 Climbing Houston Center
Sat 06:52:14 PM 29.7275 -95.2428 353° North 261 300 6,200 3,672 Climbing Houston Center
Sat 06:52:40 PM 29.7667 -95.2539 346° North 274 315 8,500 3,581 Climbing Houston Center
Sat 06:53:16 PM 29.8036 -95.2622 349° North 272 313 9,900 2,509 Climbing Houston Center
Sat 06:53:35 PM 29.8417 -95.2714 348° North 311 358 10,800 2,419 Climbing Houston Center
Sat 06:54:18 PM 29.8928 -95.2833 349° North 315 362 12,400 3,257 Climbing Houston Center
Sat 06:55:20 PM 30.0111 -95.2536 12° North 373 429 16,500 3,290 Climbing Houston Center
Sat 06:56:22 PM 30.1078 -95.1914 29° Northeast 391 450 19,200 2,732 Climbing Houston Center
Sat 06:57:23 PM 30.2094 -95.1281 28° Northeast 409 471 22,100 1,854 Climbing Houston Center
Sat 06:58:25 PM 30.3125 -95.0633 28° Northeast 417 480 23,000 871 Climbing Houston Center
Sat 06:59:27 PM 30.4158 -94.9975 29° Northeast 422 486 23,900 1,548 Climbing Houston Center
Sat 07:00:29 PM 30.5167 -94.9194 34° Northeast 428 493 26,200 2,177 Climbing Houston Center
Sat 07:01:31 PM 30.6181 -94.8417 33° Northeast 434 499 28,400 2,390 Climbing Houston Center
Sat 07:02:32 PM 30.7389 -94.7483 34° Northeast 436 502 31,100 1,463 Climbing Houston Center
Sat 07:03:34 PM 30.8425 -94.6694 33° Northeast 440 506 31,400 823 Climbing Houston Center
Sat 07:04:36 PM 30.9525 -94.5842 34° Northeast 465 535 32,800 1,597 Climbing Houston Center
Sat 07:05:38 PM 31.0619 -94.4992 34° Northeast 478 550 34,700 1,887 Climbing Houston Center
Sat 07:06:40 PM 31.1675 -94.4161 34° Northeast 467 537 36,700 1,113 Climbing Houston Center
Sat 07:07:42 PM 31.2917 -94.3192 34° Northeast 453 521 37,000 146 Climbing Houston Center
Sat 07:08:43 PM 31.3950 -94.2381 34° Northeast 450 518 37,000  Level Houston Center
Sat 07:09:45 PM 31.5003 -94.1564 33° Northeast 454 522 37,000  Level Houston Center
Sat 07:10:47 PM 31.6050 -94.0733 34° Northeast 455 524 37,000  Level Houston Center
Sat 07:11:49 PM 31.7097 -93.9861 35° Northeast 459 528 37,000  Level Houston Center
Sat 07:12:51 PM 31.7969 -93.8642 50° Northeast 487 560 37,000  Level Houston Center
Sat 07:13:52 PM 31.8806 -93.7389 52° Northeast 487 560 37,000  Level Houston Center
Sat 07:14:54 PM 31.9808 -93.5869 52° Northeast 488 562 37,000  Level Houston Center
Sat 07:15:56 PM 32.0636 -93.4614 52° Northeast 486 559 37,000  Level Houston Center
Sat 07:16:43 PM 32.1314 -93.3594 52° Northeast 487 560 37,000  Level Fort Worth Center
Sat 07:17:45 PM 32.2047 -93.2467 52° Northeast 484 557 37,000  Level Fort Worth Center
Sat 07:18:47 PM 32.2867 -93.1228 52° Northeast 481 554 37,000  Level Fort Worth Center
Sat 07:19:48 PM 32.3769 -92.9819 53° Northeast 480 552 37,000  Level Fort Worth Center
Sat 07:20:50 PM 32.4653 -92.8458 52° Northeast 485 558 37,000  Level Fort Worth Center
Sat 07:21:52 PM 32.5461 -92.7189 53° Northeast 484 557 37,000  Level Fort Worth Center
Sat 07:22:54 PM 32.6275 -92.5928 53° Northeast 483 556 37,000  Level Fort Worth Center
Sat 07:23:56 PM 32.7089 -92.4656 53° Northeast 486 559 37,000  Level Fort Worth Center
Sat 07:24:57 PM 32.7922 -92.3361 53° Northeast 493 567 37,000  Level Fort Worth Center
Sat 07:25:59 PM 32.8739 -92.2072 53° Northeast 491 565 37,000  Level Fort Worth Center
Sat 07:27:01 PM 32.9714 -92.0558 52° Northeast 483 556 37,000  Level Fort Worth Center
Sat 07:28:02 PM 33.0519 -91.9278 53° Northeast 484 557 37,000  Level Fort Worth Center
Sat 07:29:04 PM 33.1319 -91.7994 53° Northeast 485 558 37,000  Level Fort Worth Center
Sat 07:30:06 PM 33.2122 -91.6717 53° Northeast 482 555 37,000  Level Fort Worth Center
Sat 07:31:07 PM 33.2942 -91.5428 53° Northeast 487 560 37,000  Level Fort Worth Center
Sat 07:32:09 PM 33.3869 -91.3856 55° Northeast 494 568 37,000  Level Fort Worth Center
Sat 07:33:11 PM 33.4625 -91.2406 58° Northeast 500 575 37,000  Level Fort Worth Center
Sat 07:34:13 PM 33.5378 -91.0997 57° Northeast 503 579 37,000  Level Fort Worth Center
Sat 07:35:14 PM 33.6139 -90.9575 57° Northeast 507 583 37,000 49 Level Fort Worth Center
Sat 07:36:16 PM 33.6767 -90.8333 59° Northeast 497 572 37,100 805 Climbing Fort Worth Center
Sat 07:37:43 PM 33.7994 -90.6064 57° Northeast 495 570 39,000 765 Climbing Memphis Center
Sat 07:38:45 PM 33.8667 -90.4814 57° Northeast 492 566 39,000  Level Memphis Center
Sat 07:39:46 PM 33.9531 -90.3158 58° Northeast 495 570 39,000  Level Memphis Center
Sat 07:40:48 PM 34.0272 -90.1756 57° Northeast 494 568 39,000  Level Memphis Center
Sat 07:41:50 PM 34.1011 -90.0342 58° Northeast 494 568 39,000  Level Memphis Center
Sat 07:42:51 PM 34.1742 -89.8922 58° Northeast 495 570 39,000  Level Memphis Center
Sat 07:43:53 PM 34.2461 -89.7519 58° Northeast 492 566 39,000  Level Memphis Center
Sat 07:44:54 PM 34.3183 -89.6106 58° Northeast 492 566 39,000  Level Memphis Center
Sat 07:45:56 PM 34.3903 -89.4692 58° Northeast 493 567 39,000  Level Memphis Center
Sat 07:46:57 PM 34.4625 -89.3275 58° Northeast 493 567 39,000  Level Memphis Center
Sat 07:47:59 PM 34.5344 -89.1864 58° Northeast 492 566 39,000  Level Memphis Center
Sat 07:49:00 PM 34.6183 -89.0203 58° Northeast 492 566 39,000  Level Memphis Center
Sat 07:50:02 PM 34.6900 -88.8789 58° Northeast 491 565 39,000  Level Memphis Center
Sat 07:51:03 PM 34.7747 -88.7519 51° Northeast 485 558 39,000  Level Memphis Center
Sat 07:52:05 PM 34.8689 -88.6392 44° Northeast 478 550 39,000  Level Memphis Center
Sat 07:53:06 PM 34.9656 -88.5242 44° Northeast 479 551 39,000  Level Memphis Center
Sat 07:54:08 PM 35.0653 -88.4022 45° Northeast 476 548 39,000  Level Memphis Center
Sat 07:55:09 PM 35.1356 -88.2572 59° Northeast 494 568 39,000  Level Memphis Center
Sat 07:56:11 PM 35.1972 -88.1067 63° Northeast 495 570 39,000  Level Memphis Center
Sat 07:57:12 PM 35.2589 -87.9547 64° Northeast 497 572 39,000  Level Memphis Center
Sat 07:58:14 PM 35.3214 -87.8022 63° Northeast 499 574 39,000  Level Memphis Center
Sat 07:59:15 PM 35.3839 -87.6511 63° Northeast 497 572 39,000  Level Memphis Center
Sat 08:00:17 PM 35.4533 -87.4781 64° Northeast 498 573 39,000  Level Memphis Center
Sat 08:01:18 PM 35.5158 -87.3242 63° Northeast 499 574 39,000  Level Memphis Center
Sat 08:02:20 PM 35.5775 -87.1708 64° Northeast 499 574 39,000  Level Memphis Center
Sat 08:03:21 PM 35.6383 -87.0172 64° Northeast 498 573 39,000  Level Memphis Center
Sat 08:04:23 PM 35.6989 -86.8642 64° Northeast 497 572 39,000  Level Memphis Center
Sat 08:05:24 PM 35.7581 -86.7108 65° Northeast 496 571 39,000  Level Memphis Center
Sat 08:06:26 PM 35.8192 -86.5586 64° Northeast 494 568 39,000  Level Memphis Center
Sat 08:07:27 PM 35.8783 -86.4061 64° Northeast 493 567 39,000  Level Memphis Center
Sat 08:08:29 PM 35.9486 -86.2275 64° Northeast 494 568 39,000  Level Memphis Center
Sat 08:09:30 PM 36.0069 -86.0744 65° Northeast 493 567 39,000  Level Memphis Center
Sat 08:10:32 PM 36.0667 -85.9206 64° Northeast 493 567 39,000  Level Memphis Center
Sat 08:11:33 PM 36.1253 -85.7675 65° Northeast 494 568 39,000  Level Memphis Center
Sat 08:12:20 PM 36.1731 -85.6431 65° Northeast 494 568 39,000  Level Indianapolis Center
Sat 08:13:22 PM 36.2319 -85.4894 65° Northeast 492 566 39,000  Level Indianapolis Center
Sat 08:14:23 PM 36.2911 -85.3344 65° Northeast 493 567 39,000  Level Indianapolis Center
Sat 08:15:24 PM 36.3508 -85.1781 65° Northeast 497 572 39,000  Level Indianapolis Center
Sat 08:16:25 PM 36.4100 -85.0208 65° Northeast 498 573 39,000  Level Indianapolis Center
Sat 08:17:26 PM 36.4678 -84.8608 66° East 503 579 39,000  Level Indianapolis Center
Sat 08:18:28 PM 36.5264 -84.7036 65° Northeast 500 575 39,000  Level Indianapolis Center
Sat 08:19:29 PM 36.5850 -84.5453 65° Northeast 501 577 39,000  Level Indianapolis Center
Sat 08:20:31 PM 36.6489 -84.3711 65° Northeast 503 579 39,000  Level Indianapolis Center
Sat 08:21:32 PM 36.7075 -84.2122 65° Northeast 504 580 39,000 -393 Level Indianapolis Center
Sat 08:22:33 PM 36.7647 -84.0511 66° East 507 583 38,200 -829 Descending Indianapolis Center
Sat 08:23:35 PM 36.8225 -83.8886 66° East 510 587 37,300 -585 Descending Indianapolis Center
Sat 08:24:36 PM 36.8783 -83.7272 67° East 508 585 37,000 -148 Descending Indianapolis Center
Sat 08:25:37 PM 36.9331 -83.5625 67° East 510 587 37,000  Level Indianapolis Center
Sat 08:26:38 PM 36.9867 -83.3983 68° East 509 586 37,000  Level Indianapolis Center
Sat 08:27:40 PM 37.0494 -83.2069 68° East 505 581 37,000  Level Indianapolis Center
Sat 08:28:41 PM 37.1042 -83.0433 67° East 503 579 37,000  Level Indianapolis Center
Sat 08:29:42 PM 37.1575 -82.8783 68° East 502 578 37,000  Level Indianapolis Center
Sat 08:30:43 PM 37.2106 -82.7128 68° East 505 581 37,000  Level Indianapolis Center
Sat 08:31:45 PM 37.2644 -82.5461 68° East 511 588 37,000  Level Indianapolis Center
Sat 08:32:46 PM 37.3181 -82.3792 68° East 513 590 37,000  Level Indianapolis Center
Sat 08:33:47 PM 37.3706 -82.2125 68° East 512 589 37,000  Level Indianapolis Center
Sat 08:34:49 PM 37.4231 -82.0456 68° East 514 592 37,000  Level Indianapolis Center
Sat 08:35:50 PM 37.4761 -81.8756 68° East 519 597 37,000  Level Indianapolis Center
Sat 08:36:51 PM 37.5303 -81.7056 68° East 522 601 37,000  Level Indianapolis Center
Sat 08:37:52 PM 37.5825 -81.5336 69° East 524 603 37,000  Level Indianapolis Center
Sat 08:38:54 PM 37.6386 -81.3517 69° East 526 605 37,000  Level Indianapolis Center
Sat 08:39:55 PM 37.6906 -81.1836 69° East 525 604 37,000  Level Indianapolis Center
Sat 08:40:56 PM 37.7400 -81.0147 70° East 526 605 37,000  Level Indianapolis Center
Sat 08:41:57 PM 37.8011 -80.8125 69° East 526 605 37,000  Level Indianapolis Center
Sat 08:42:59 PM 37.8458 -80.6606 70° East 523 602 37,000  Level Indianapolis Center
Sat 08:44:09 PM 37.9122 -80.4481 68° East 517 595 37,000  Level Washington Center
Sat 08:45:08 PM 37.9650 -80.2778 68° East 517 595 37,000  Level Washington Center
Sat 08:46:08 PM 38.0153 -80.1042 70° East 517 595 37,000  Level Washington Center
Sat 08:47:08 PM 38.0656 -79.9306 70° East 522 601 37,000  Level Washington Center
Sat 08:48:10 PM 38.1108 -79.7747 70° East 522 601 37,000  Level Washington Center
Sat 08:49:08 PM 38.1625 -79.6033 69° East 522 601 37,000 -1,500 Level Washington Center
Sat 08:50:10 PM 38.2100 -79.4261 71° East 522 601 34,000 -3,124 Descending Washington Center
Sat 08:51:09 PM 38.2614 -79.2517 69° East 522 601 30,700 -2,950 Descending Washington Center
Sat 08:52:10 PM 38.3125 -79.0769 70° East 517 595 28,100 -1,765 Descending Washington Center
Sat 08:53:08 PM 38.3567 -78.9175 71° East 505 581 27,200 -550 Descending Washington Center
Sat 08:54:10 PM 38.4008 -78.7444 72° East 483 556 27,000 -100 Descending Washington Center
Sat 08:55:08 PM 38.4447 -78.5847 71° East 471 542 27,000  Level Washington Center
Sat 08:56:09 PM 38.4881 -78.4244 71° East 471 542 27,000 -934 Level Washington Center
Sat 08:57:10 PM 38.5314 -78.2669 71° East 476 548 25,100 -2,118 Descending Washington Center
Sat 08:58:08 PM 38.5742 -78.1117 71° East 470 541 22,800 -2,339 Descending Washington Center
Sat 08:59:08 PM 38.6128 -77.9644 71° East 451 519 20,500 -1,884 Descending Washington Center
Sat 09:00:09 PM 38.6428 -77.8111 76° East 440 506 19,000 -738 Descending Washington Center
Sat 09:01:10 PM 38.6539 -77.6600 85° East 429 494 19,000 -313 Level Washington Center
Sat 09:01:45 PM 38.6667 -77.5667 80° East 429 494 18,500 -1,642 Descending Potomac TRACON
Sat 09:02:45 PM 38.6667 -77.4167 90° East 416 479 16,400 -1,350 Descending Potomac TRACON
Sat 09:03:45 PM 38.6833 -77.2667 82° East 405 466 15,800 -1,429 Descending Potomac TRACON
Sat 09:04:51 PM 38.6833 -77.1167 90° East 394 453 13,400 -2,150 Descending Potomac TRACON
Sat 09:05:45 PM 38.7000 -76.9833 81° East 385 443 11,500 -1,526 Descending Potomac TRACON
Sat 09:06:45 PM 38.7000 -76.8500 90° East 363 418 10,500 -1,000 Descending Potomac TRACON
Sat 09:07:45 PM 38.7167 -76.7500 78° East 316 364 9,500 -1,450 Descending Potomac TRACON
Sat 09:08:45 PM 38.7500 -76.6500 67° East 308 354 7,600 -1,750 Descending Potomac TRACON
Sat 09:09:45 PM 38.8000 -76.5500 57° Northeast 313 360 6,000 -1,600 Descending Potomac TRACON
Sat 09:10:45 PM 38.8667 -76.5167 21° North 296 341 4,400 -1,000 Descending Potomac TRACON
Sat 09:11:45 PM 38.9500 -76.5000 North 281 323 4,000 -350 Descending Potomac TRACON
Sat 09:12:45 PM 39.0167 -76.4833 11° North 259 298 3,700 -500 Descending Potomac TRACON
Sat 09:13:45 PM 39.0833 -76.4833 360° North 239 275 3,000 -556 Descending Potomac TRACON
Sat 09:14:33 PM 39.1333 -76.4667 14° North 204 235 2,700 -526 Descending Potomac TRACON
Sat 09:15:39 PM 39.1667 -76.5167 311° West 158 182 2,000 -571 Descending Potomac TRACON
Sat 09:16:39 PM 39.1667 -76.5667 270° West 135 155 1,500 -600 Descending Potomac TRACON
Sat 09:17:39 PM 39.1667 -76.6167 270° West 120 138 800 -700 Descending Potomac TRACON
Sat 09:19:00 PM 39.1667 -76.6667 326° Northwest  Level FlightAware Approximate
Sat 09:26:00 PM 39.1754 -76.6683 326° Northwest  Level Estimated
Sat 09:27:00 PM 39.1754 -76.6683 326° Northwest  Level Estimated
Sat 09:28:00 PM 39.1754 -76.6683 326° Northwest  Level Estimated
Sat 09:29:00 PM 39.1754 -76.6683 326° Northwest  Level Estimated

Login

Don't have an account? Register now (free) for customized features, flight alerts, and more!